Weather at Mayrhofen Heliport

Public forecast

Using degrees Celsius for public forecast. Weather courtesy of forecast.io.

Closest aviation weather report (METAR) to Mayrhofen Heliport

Closest report is Innsbruck Airport, 21.9 nm (40.6 km) WNW. Retrieved 2021/06/19 22:20 UTC (10 minutes ago):

LOWI 192220Z AUTO VRB02KT 9999 NCD 19/18 Q1015

Closest aviation forecast (TAF) to Mayrhofen Heliport

Closest forecast is Innsbruck Airport, 21.9 nm (40.6 km) WNW. Retrieved 2021/06/19 18:21 UTC (4 hours ago):

TAF LOWI 191715Z 1918/2018 09010KT CAVOK TX34/2013Z TN17/2004Z BECMG 1918/1920 27006KT BECMG 2009/2011 09008KT FEW070CB TEMPO 2010/2018 12015G25KT PROB30 TEMPO 2014/2018 VRB20G30KT TSRA BKN070CB